createdAt,value
2024-03-24T00:02:01.509Z,6.21
2024-03-24T00:04:28.196Z,6.20
2024-03-24T00:06:54.977Z,6.19
2024-03-24T00:09:21.594Z,6.18
2024-03-24T00:11:48.287Z,6.16
2024-03-24T00:14:14.850Z,6.14
2024-03-24T00:16:41.689Z,6.11
2024-03-24T00:19:08.440Z,6.10
2024-03-24T00:21:35.164Z,6.08
2024-03-24T00:24:04.782Z,6.06
2024-03-24T00:26:31.539Z,6.04
2024-03-24T00:28:58.162Z,6.02
2024-03-24T00:31:24.953Z,6.01
2024-03-24T00:33:51.745Z,6.01
2024-03-24T00:36:18.461Z,6.00
2024-03-24T00:38:45.065Z,6.00
2024-03-24T00:41:11.898Z,6.00
2024-03-24T00:43:39.382Z,5.97
2024-03-24T00:46:06.020Z,5.96
2024-03-24T00:48:32.592Z,5.96
2024-03-24T00:50:59.226Z,5.96
2024-03-24T00:53:25.860Z,5.96
2024-03-24T00:55:52.526Z,5.96
2024-03-24T00:58:19.248Z,5.94
2024-03-24T01:00:47.200Z,5.93
2024-03-24T01:03:13.949Z,5.91
2024-03-24T01:05:40.513Z,5.89
2024-03-24T01:08:07.315Z,5.87
2024-03-24T01:10:37.944Z,5.87
2024-03-24T01:13:04.693Z,5.86
2024-03-24T01:15:32.188Z,5.85
2024-03-24T01:17:58.965Z,5.85
2024-03-24T01:20:25.761Z,5.85
2024-03-24T01:22:52.663Z,5.85
2024-03-24T01:25:19.339Z,5.85
2024-03-24T01:27:46.074Z,5.82
2024-03-24T01:30:13.428Z,5.80
2024-03-24T01:32:40.198Z,5.79
2024-03-24T01:35:07.217Z,5.77
2024-03-24T01:37:33.954Z,5.74
2024-03-24T01:40:01.114Z,5.72
2024-03-24T01:42:27.827Z,5.72
2024-03-24T01:44:54.609Z,5.71
2024-03-24T01:47:21.277Z,5.70
2024-03-24T01:49:48.300Z,5.69
2024-03-24T01:52:15.332Z,5.69
2024-03-24T01:54:42.357Z,5.68
2024-03-24T01:57:08.994Z,5.68
2024-03-24T01:59:35.802Z,5.66
2024-03-24T02:02:03.260Z,5.65
2024-03-24T02:04:30.097Z,5.63
2024-03-24T02:06:57.203Z,5.60
2024-03-24T02:09:23.769Z,5.58
2024-03-24T02:11:51.052Z,5.56
2024-03-24T02:14:17.812Z,5.56
2024-03-24T02:16:44.694Z,5.55
2024-03-24T02:19:11.329Z,5.52
2024-03-24T02:21:37.908Z,5.51
2024-03-24T02:24:04.887Z,5.50
2024-03-24T02:26:34.288Z,5.49
2024-03-24T02:29:00.965Z,5.48
2024-03-24T02:31:27.707Z,5.47
2024-03-24T02:33:54.456Z,5.47
2024-03-24T02:36:21.068Z,5.45
2024-03-24T02:38:47.700Z,5.45
2024-03-24T02:41:15.214Z,5.43
2024-03-24T02:43:42.002Z,5.40
2024-03-24T02:46:11.340Z,5.38
2024-03-24T02:48:38.063Z,5.35
2024-03-24T02:51:05.100Z,5.31
2024-03-24T02:53:31.815Z,5.28
2024-03-24T02:55:58.477Z,5.25
2024-03-24T02:58:25.189Z,5.21
2024-03-24T03:00:52.138Z,5.19
2024-03-24T03:03:18.983Z,5.17
2024-03-24T03:05:49.044Z,5.14
2024-03-24T03:08:15.805Z,5.12
2024-03-24T03:10:42.502Z,5.11
2024-03-24T03:13:09.337Z,5.09
2024-03-24T03:15:36.289Z,5.09
2024-03-24T03:18:05.066Z,5.08
2024-03-24T03:20:31.942Z,5.07
2024-03-24T03:22:58.647Z,5.04
2024-03-24T03:25:25.586Z,5.03
2024-03-24T03:27:52.269Z,5.02
2024-03-24T03:30:19.109Z,5.01
2024-03-24T03:32:45.656Z,4.99
2024-03-24T03:35:12.365Z,4.98
2024-03-24T03:37:39.156Z,4.95
2024-03-24T03:40:07.213Z,4.93
2024-03-24T03:42:34.011Z,4.92
2024-03-24T03:45:00.859Z,4.89
2024-03-24T03:47:27.522Z,4.85
2024-03-24T03:49:55.210Z,4.83
2024-03-24T03:52:30.812Z,4.81
2024-03-24T03:55:01.559Z,4.79
2024-03-24T03:57:28.263Z,4.77
2024-03-24T03:59:56.055Z,4.75
2024-03-24T04:02:22.662Z,4.72
2024-03-24T04:04:50.725Z,4.69
2024-03-24T04:07:17.517Z,4.66
2024-03-24T04:09:44.266Z,4.65
2024-03-24T04:12:22.525Z,4.61
2024-03-24T04:14:49.242Z,4.57
2024-03-24T04:17:15.999Z,4.53
2024-03-24T04:19:45.054Z,4.50
2024-03-24T04:22:11.887Z,4.49
2024-03-24T04:24:38.480Z,4.47
2024-03-24T04:27:05.866Z,4.44
2024-03-24T04:29:32.722Z,4.41
2024-03-24T04:31:59.652Z,4.37
2024-03-24T04:34:26.324Z,4.34
2024-03-24T04:36:53.165Z,4.30
2024-03-24T04:39:20.509Z,4.27
2024-03-24T04:41:47.792Z,4.23
2024-03-24T04:44:14.710Z,4.18
2024-03-24T04:46:41.356Z,4.14
2024-03-24T04:49:08.795Z,4.08
2024-03-24T04:51:35.717Z,4.03
2024-03-24T04:54:03.382Z,3.99
2024-03-24T04:56:30.117Z,3.97
2024-03-24T04:58:56.853Z,3.96
2024-03-24T05:01:23.683Z,3.96
2024-03-24T05:03:50.563Z,3.98
2024-03-24T05:06:17.841Z,4.00
2024-03-24T05:08:44.699Z,4.05
2024-03-24T05:11:11.253Z,4.09
2024-03-24T05:13:37.942Z,4.13
2024-03-24T05:16:08.376Z,4.19
2024-03-24T05:18:35.714Z,4.25
2024-03-24T05:21:04.517Z,4.30
2024-03-24T05:23:31.677Z,4.36
2024-03-24T05:25:58.402Z,4.41
2024-03-24T05:28:30.491Z,4.45
2024-03-24T05:30:58.258Z,4.51
2024-03-24T05:33:24.901Z,4.59
2024-03-24T05:35:59.776Z,4.68
2024-03-24T05:38:26.848Z,4.76
2024-03-24T05:41:08.078Z,4.85
2024-03-24T05:43:37.672Z,4.97
2024-03-24T05:46:07.985Z,5.06
2024-03-24T05:48:37.566Z,5.12
2024-03-24T05:51:06.070Z,5.16
2024-03-24T05:53:35.806Z,5.20
2024-03-24T05:56:03.130Z,5.22
2024-03-24T05:58:32.408Z,5.23
2024-03-24T06:01:03.727Z,5.23
2024-03-24T06:03:30.631Z,5.27
2024-03-24T06:05:57.924Z,5.39
2024-03-24T06:08:25.109Z,5.55
2024-03-24T06:10:52.175Z,5.74
2024-03-24T06:13:18.865Z,5.99
2024-03-24T06:15:45.512Z,6.38
2024-03-24T06:18:12.549Z,6.65
2024-03-24T06:20:42.217Z,6.87
2024-03-24T06:23:08.855Z,7.05
2024-03-24T06:25:35.742Z,7.21
2024-03-24T06:28:02.981Z,7.36
2024-03-24T06:30:30.074Z,7.52
2024-03-24T06:32:57.228Z,7.67
2024-03-24T06:35:24.189Z,7.81
2024-03-24T06:37:55.914Z,7.95
2024-03-24T06:40:22.488Z,8.07
2024-03-24T06:43:01.450Z,8.18
2024-03-24T06:45:36.866Z,8.24
2024-03-24T06:48:05.458Z,8.23
2024-03-24T06:50:43.744Z,8.16
2024-03-24T06:53:11.050Z,8.08
2024-03-24T06:55:48.471Z,8.05
2024-03-24T06:58:16.350Z,8.01
2024-03-24T07:00:48.505Z,7.98
2024-03-24T07:03:18.380Z,7.94
2024-03-24T07:05:47.955Z,7.88
2024-03-24T07:08:14.753Z,7.80
2024-03-24T07:10:41.661Z,7.71
2024-03-24T07:13:11.963Z,7.61
2024-03-24T07:15:41.573Z,7.51
2024-03-24T07:18:08.417Z,7.42
2024-03-24T07:21:08.406Z,7.36
2024-03-24T07:23:38.456Z,7.31
2024-03-24T07:26:05.243Z,7.25
2024-03-24T07:28:31.960Z,7.19
2024-03-24T07:30:58.609Z,7.15
2024-03-24T07:33:25.231Z,7.11
2024-03-24T07:35:51.790Z,7.07
2024-03-24T07:38:23.536Z,7.06
2024-03-24T07:40:50.717Z,7.07
2024-03-24T07:43:17.199Z,7.08
2024-03-24T07:45:43.991Z,7.09
2024-03-24T07:48:11.897Z,7.09
2024-03-24T07:50:41.257Z,7.22
2024-03-24T07:53:10.905Z,7.40
2024-03-24T07:55:37.462Z,7.50
2024-03-24T07:58:09.707Z,7.56
2024-03-24T08:00:36.632Z,7.61
2024-03-24T08:03:03.566Z,7.61
2024-03-24T08:05:33.259Z,7.60
2024-03-24T08:08:01.059Z,7.59
2024-03-24T08:10:27.769Z,7.56
2024-03-24T08:12:54.512Z,7.52
2024-03-24T08:15:21.225Z,7.47
2024-03-24T08:17:48.125Z,7.46
2024-03-24T08:20:14.983Z,7.46
2024-03-24T08:22:41.691Z,7.51
2024-03-24T08:25:09.236Z,7.53
2024-03-24T08:27:36.037Z,7.50
2024-03-24T08:30:03.309Z,7.50
2024-03-24T08:32:30.073Z,7.52
2024-03-24T08:34:57.306Z,7.55
2024-03-24T08:37:23.924Z,7.57
2024-03-24T08:39:50.784Z,7.56
2024-03-24T08:42:17.602Z,7.54
2024-03-24T08:44:44.538Z,7.53
2024-03-24T08:47:30.197Z,7.52
2024-03-24T08:49:56.899Z,7.50
2024-03-24T08:52:23.598Z,7.51
2024-03-24T08:54:50.293Z,7.50
2024-03-24T08:57:16.944Z,7.49
2024-03-24T08:59:43.591Z,7.48
2024-03-24T09:02:10.294Z,7.44
2024-03-24T09:04:37.027Z,7.40
2024-03-24T09:07:03.704Z,7.38
2024-03-24T09:09:30.620Z,7.37
2024-03-24T09:11:57.304Z,7.40
2024-03-24T09:14:23.960Z,7.42
2024-03-24T09:16:50.713Z,7.43
2024-03-24T09:19:17.584Z,7.47
2024-03-24T09:21:44.419Z,7.50
2024-03-24T09:24:10.957Z,7.53
2024-03-24T09:26:43.347Z,7.58
2024-03-24T09:29:12.367Z,7.65
2024-03-24T09:31:39.186Z,7.77
2024-03-24T09:34:05.778Z,7.89
2024-03-24T09:36:32.503Z,7.97
2024-03-24T09:38:59.118Z,8.06
2024-03-24T09:41:28.707Z,8.14
2024-03-24T09:43:55.603Z,8.19
2024-03-24T09:46:22.251Z,8.22
2024-03-24T09:48:54.153Z,8.24
2024-03-24T09:51:24.033Z,8.24
2024-03-24T09:53:50.823Z,8.22
2024-03-24T09:56:19.625Z,8.20
2024-03-24T09:58:46.330Z,8.15
2024-03-24T10:01:13.313Z,8.08
2024-03-24T10:03:45.798Z,8.00
2024-03-24T10:06:12.859Z,7.92
2024-03-24T10:08:39.536Z,7.85
2024-03-24T10:11:26.447Z,7.80
2024-03-24T10:13:57.824Z,7.75
2024-03-24T10:16:24.813Z,7.73
2024-03-24T10:18:52.070Z,7.75
2024-03-24T10:21:19.855Z,7.82
2024-03-24T10:23:47.373Z,7.93
2024-03-24T10:26:22.125Z,8.08
2024-03-24T10:28:51.910Z,8.24
2024-03-24T10:31:18.972Z,8.33
2024-03-24T10:33:46.028Z,8.41
2024-03-24T10:36:12.889Z,8.48
2024-03-24T10:38:40.102Z,8.53
2024-03-24T10:41:08.345Z,8.56
2024-03-24T10:43:38.471Z,8.59
2024-03-24T10:46:08.516Z,8.59
2024-03-24T10:48:36.220Z,8.58
2024-03-24T10:51:10.540Z,8.61
2024-03-24T10:53:37.458Z,8.72
2024-03-24T10:56:05.666Z,8.88
2024-03-24T10:58:34.240Z,9.06
2024-03-24T11:01:01.307Z,9.20
2024-03-24T11:03:28.430Z,9.28
2024-03-24T11:05:55.130Z,9.35
2024-03-24T11:08:25.892Z,9.39
2024-03-24T11:10:55.954Z,9.41
2024-03-24T11:13:29.891Z,9.45
2024-03-24T11:15:59.944Z,9.55
2024-03-24T11:18:27.997Z,9.66
2024-03-24T11:20:56.675Z,9.73
2024-03-24T11:23:26.039Z,9.70
2024-03-24T11:26:00.779Z,9.59
2024-03-24T11:28:56.044Z,9.49
2024-03-24T11:31:22.821Z,9.45
2024-03-24T11:34:05.332Z,9.51
2024-03-24T11:36:38.323Z,9.63
2024-03-24T11:39:12.843Z,9.79
2024-03-24T11:41:55.093Z,9.93
2024-03-24T11:44:22.018Z,10.00
2024-03-24T11:47:01.797Z,9.99
2024-03-24T11:49:38.152Z,9.94
2024-03-24T11:52:06.074Z,9.88
2024-03-24T11:54:38.645Z,9.78
2024-03-24T11:57:05.689Z,9.70
2024-03-24T11:59:32.383Z,9.63
2024-03-24T12:01:59.166Z,9.57
2024-03-24T12:04:27.073Z,9.52
2024-03-24T12:06:54.196Z,9.48
2024-03-24T12:09:23.419Z,9.47
2024-03-24T12:11:55.698Z,9.46
2024-03-24T12:14:23.619Z,9.45
2024-03-24T12:17:08.794Z,9.42
2024-03-24T12:19:36.992Z,9.37
2024-03-24T12:22:03.881Z,9.33
2024-03-24T12:24:30.948Z,9.29
2024-03-24T12:26:57.628Z,9.26
2024-03-24T12:29:24.325Z,9.21
2024-03-24T12:31:51.218Z,9.20
2024-03-24T12:34:21.360Z,9.17
2024-03-24T12:36:48.375Z,9.12
2024-03-24T12:39:15.185Z,9.15
2024-03-24T12:41:42.266Z,9.24
2024-03-24T12:44:08.952Z,9.33
2024-03-24T12:46:35.897Z,9.40
2024-03-24T12:49:18.727Z,9.43
2024-03-24T12:51:45.455Z,9.46
2024-03-24T12:54:17.308Z,9.53
2024-03-24T12:56:45.848Z,9.58
2024-03-24T12:59:12.860Z,9.59
2024-03-24T13:01:42.083Z,9.56
2024-03-24T13:04:11.803Z,9.53
2024-03-24T13:06:44.118Z,9.56
2024-03-24T13:09:11.647Z,9.61
2024-03-24T13:11:38.431Z,9.67
2024-03-24T13:14:05.936Z,9.75
2024-03-24T13:16:42.385Z,9.82
2024-03-24T13:19:26.449Z,9.88
2024-03-24T13:21:59.500Z,9.89
2024-03-24T13:24:28.255Z,9.92
2024-03-24T13:26:57.605Z,9.98
2024-03-24T13:29:24.839Z,10.03
2024-03-24T13:31:51.564Z,10.08
2024-03-24T13:34:18.393Z,10.12
2024-03-24T13:37:09.655Z,10.13
2024-03-24T13:39:54.804Z,10.16
2024-03-24T13:42:36.704Z,10.21
2024-03-24T13:45:44.824Z,10.18
2024-03-24T13:48:17.676Z,10.10
2024-03-24T13:50:45.680Z,10.02
2024-03-24T13:53:16.203Z,9.95
2024-03-24T13:55:44.322Z,9.88
2024-03-24T13:58:11.363Z,9.82
2024-03-24T14:00:38.163Z,9.76
2024-03-24T14:03:07.407Z,9.71
2024-03-24T14:05:34.259Z,9.67
2024-03-24T14:08:01.163Z,9.61
2024-03-24T14:10:27.847Z,9.56
2024-03-24T14:13:13.384Z,9.50
2024-03-24T14:15:54.513Z,9.44
2024-03-24T14:19:09.314Z,9.38
2024-03-24T14:21:59.186Z,9.31
2024-03-24T14:24:41.543Z,9.27
2024-03-24T14:27:11.025Z,9.24
2024-03-24T14:29:37.634Z,9.22
2024-03-24T14:32:04.748Z,9.20
2024-03-24T14:34:31.427Z,9.21
2024-03-24T14:37:28.054Z,9.25
2024-03-24T14:40:14.869Z,9.51
2024-03-24T14:42:52.725Z,9.84
2024-03-24T14:45:46.753Z,9.91
2024-03-24T14:48:28.206Z,9.91
2024-03-24T14:50:55.078Z,9.91
2024-03-24T14:53:25.137Z,9.91
2024-03-24T14:55:51.933Z,9.89
2024-03-24T14:58:20.876Z,9.90
2024-03-24T15:00:54.043Z,9.91
2024-03-24T15:03:21.495Z,9.92
2024-03-24T15:05:53.444Z,9.91
2024-03-24T15:08:20.417Z,9.85
2024-03-24T15:10:59.037Z,9.80
2024-03-24T15:13:33.088Z,9.74
2024-03-24T15:15:59.877Z,9.68
2024-03-24T15:18:29.140Z,9.60
2024-03-24T15:21:00.514Z,9.54
2024-03-24T15:23:27.245Z,9.48
2024-03-24T15:25:54.378Z,9.43
2024-03-24T15:28:21.091Z,9.37
2024-03-24T15:30:47.959Z,9.32
2024-03-24T15:33:14.635Z,9.27
2024-03-24T15:35:41.293Z,9.22
2024-03-24T15:38:07.986Z,9.16
2024-03-24T15:40:34.647Z,9.10
2024-03-24T15:43:01.278Z,9.06
2024-03-24T15:45:28.153Z,9.04
2024-03-24T15:47:54.820Z,9.00
2024-03-24T15:50:21.682Z,8.98
2024-03-24T15:52:48.178Z,8.96
2024-03-24T15:55:14.790Z,8.95
2024-03-24T15:58:26.331Z,8.93
2024-03-24T16:00:59.428Z,8.94
2024-03-24T16:03:26.043Z,9.00
2024-03-24T16:05:52.792Z,9.02
2024-03-24T16:08:22.221Z,9.01
2024-03-24T16:10:56.364Z,9.00
2024-03-24T16:13:42.706Z,8.98
2024-03-24T16:16:09.559Z,8.96
2024-03-24T16:18:36.531Z,8.95
2024-03-24T16:21:07.859Z,8.92
2024-03-24T16:23:34.881Z,8.89
2024-03-24T16:26:01.597Z,8.85
2024-03-24T16:28:29.082Z,8.81
2024-03-24T16:30:55.683Z,8.75
2024-03-24T16:33:29.004Z,8.70
2024-03-24T16:35:58.249Z,8.66
2024-03-24T16:38:25.750Z,8.61
2024-03-24T16:40:52.813Z,8.56
2024-03-24T16:43:22.447Z,8.50
2024-03-24T16:45:49.370Z,8.40
2024-03-24T16:48:16.758Z,8.30
2024-03-24T16:50:43.578Z,8.20
2024-03-24T16:53:10.368Z,8.11
2024-03-24T16:55:37.925Z,8.01
2024-03-24T16:58:06.997Z,7.92
2024-03-24T17:00:36.046Z,7.84
2024-03-24T17:03:02.956Z,7.77
2024-03-24T17:05:29.768Z,7.65
2024-03-24T17:08:06.013Z,7.52
2024-03-24T17:10:32.746Z,7.42
2024-03-24T17:12:59.545Z,7.34
2024-03-24T17:15:26.303Z,7.29
2024-03-24T17:17:53.661Z,7.26
2024-03-24T17:20:23.480Z,7.26
2024-03-24T17:22:50.074Z,7.24
2024-03-24T17:25:16.882Z,7.14
2024-03-24T17:27:45.293Z,7.05
2024-03-24T17:30:12.759Z,6.98
2024-03-24T17:32:39.537Z,6.90
2024-03-24T17:35:07.570Z,6.82
2024-03-24T17:37:34.134Z,6.71
2024-03-24T17:40:00.854Z,6.58
2024-03-24T17:42:27.583Z,6.50
2024-03-24T17:44:54.236Z,6.41
2024-03-24T17:47:21.047Z,6.32
2024-03-24T17:49:47.923Z,6.22
2024-03-24T17:52:14.740Z,6.11
2024-03-24T17:54:41.336Z,6.00
2024-03-24T17:57:08.452Z,5.88
2024-03-24T17:59:35.168Z,5.78
2024-03-24T18:02:07.183Z,5.68
2024-03-24T18:04:34.693Z,5.60
2024-03-24T18:07:19.983Z,5.52
2024-03-24T18:10:05.161Z,5.42
2024-03-24T18:12:32.167Z,5.30
2024-03-24T18:14:58.828Z,5.20
2024-03-24T18:17:26.354Z,5.11
2024-03-24T18:19:52.979Z,5.04
2024-03-24T18:22:19.910Z,4.99
2024-03-24T18:24:46.665Z,4.93
2024-03-24T18:27:13.403Z,4.90
2024-03-24T18:29:40.235Z,4.83
2024-03-24T18:32:07.749Z,4.76
2024-03-24T18:34:34.226Z,4.69
2024-03-24T18:37:01.000Z,4.65
2024-03-24T18:39:27.723Z,4.61
2024-03-24T18:41:57.978Z,4.57
2024-03-24T18:44:25.255Z,4.52
2024-03-24T18:46:51.906Z,4.48
2024-03-24T18:49:18.613Z,4.45
2024-03-24T18:51:45.576Z,4.42
2024-03-24T18:54:16.094Z,4.40
2024-03-24T18:56:42.796Z,4.38
2024-03-24T18:59:09.467Z,4.37
2024-03-24T19:01:36.409Z,4.34
2024-03-24T19:04:03.854Z,4.31
2024-03-24T19:06:33.216Z,4.28
2024-03-24T19:09:00.062Z,4.23
2024-03-24T19:11:29.162Z,4.17
2024-03-24T19:13:55.938Z,4.12
2024-03-24T19:16:22.889Z,4.07
2024-03-24T19:18:50.240Z,4.01
2024-03-24T19:21:16.967Z,3.96
2024-03-24T19:23:43.780Z,3.91
2024-03-24T19:26:11.060Z,3.86
2024-03-24T19:28:37.723Z,3.83
2024-03-24T19:31:04.933Z,3.79
2024-03-24T19:33:33.737Z,3.75
2024-03-24T19:36:00.362Z,3.72
2024-03-24T19:38:27.210Z,3.66
2024-03-24T19:40:53.825Z,3.63
2024-03-24T19:43:20.683Z,3.58
2024-03-24T19:45:47.341Z,3.54
2024-03-24T19:48:14.152Z,3.49
2024-03-24T19:50:41.034Z,3.46
2024-03-24T19:53:08.330Z,3.42
2024-03-24T19:55:34.978Z,3.40
2024-03-24T19:58:04.114Z,3.37
2024-03-24T20:00:30.959Z,3.34
2024-03-24T20:02:57.604Z,3.32
2024-03-24T20:05:24.594Z,3.30
2024-03-24T20:07:51.349Z,3.28
2024-03-24T20:10:17.952Z,3.29
2024-03-24T20:12:45.053Z,3.34
2024-03-24T20:15:11.756Z,3.35
2024-03-24T20:17:38.459Z,3.32
2024-03-24T20:22:57.451Z,3.30
2024-03-24T20:25:25.431Z,3.31
2024-03-24T20:27:52.507Z,3.32
2024-03-24T20:30:19.403Z,3.35
2024-03-24T20:32:45.987Z,3.37
2024-03-24T20:35:14.723Z,3.40
2024-03-24T20:37:41.543Z,3.41
2024-03-24T20:40:11.449Z,3.43
2024-03-24T20:42:38.966Z,3.44
2024-03-24T20:45:09.457Z,3.47
2024-03-24T20:47:37.628Z,3.50
2024-03-24T20:50:04.648Z,3.53
2024-03-24T20:52:31.322Z,3.55
2024-03-24T20:54:58.091Z,3.57
2024-03-24T20:57:25.045Z,3.59
2024-03-24T20:59:53.879Z,3.61
2024-03-24T21:02:20.584Z,3.63
2024-03-24T21:04:49.761Z,3.64
2024-03-24T21:07:16.383Z,3.66
2024-03-24T21:09:43.536Z,3.68
2024-03-24T21:12:10.286Z,3.75
2024-03-24T21:14:37.470Z,3.79
2024-03-24T21:17:13.365Z,3.80
2024-03-24T21:19:40.123Z,3.82
2024-03-24T21:22:09.197Z,3.85
2024-03-24T21:24:35.967Z,3.87
2024-03-24T21:27:02.991Z,3.89
2024-03-24T21:29:29.983Z,3.91
2024-03-24T21:31:56.840Z,3.90
2024-03-24T21:34:23.820Z,3.91
2024-03-24T21:36:50.715Z,3.92
2024-03-24T21:39:38.589Z,3.93
2024-03-24T21:42:10.497Z,3.93
2024-03-24T21:44:41.511Z,3.94
2024-03-24T21:47:12.778Z,3.93
2024-03-24T21:49:41.061Z,3.92
2024-03-24T21:52:08.809Z,3.92
2024-03-24T21:54:35.671Z,3.92
2024-03-24T21:57:03.357Z,3.93
2024-03-24T21:59:29.927Z,3.93
2024-03-24T22:01:59.627Z,3.94
2024-03-24T22:04:26.314Z,3.95
2024-03-24T22:07:01.591Z,3.97
2024-03-24T22:09:33.379Z,3.98
2024-03-24T22:12:02.700Z,3.98
2024-03-24T22:14:31.810Z,3.99
2024-03-24T22:16:58.473Z,4.00
2024-03-24T22:19:25.223Z,4.01
2024-03-24T22:21:51.724Z,4.01
2024-03-24T22:24:18.330Z,4.00
2024-03-24T22:26:45.017Z,4.01
2024-03-24T22:29:14.348Z,4.00
2024-03-24T22:31:43.985Z,4.00
2024-03-24T22:34:13.894Z,3.98
2024-03-24T22:36:40.936Z,4.00
2024-03-24T22:39:09.487Z,4.02
2024-03-24T22:41:36.401Z,4.04
2024-03-24T22:44:03.296Z,4.06
2024-03-24T22:46:29.912Z,4.07
2024-03-24T22:48:56.727Z,4.08
2024-03-24T22:51:23.580Z,4.09
2024-03-24T22:53:52.857Z,4.09
2024-03-24T22:56:29.793Z,4.08
2024-03-24T22:59:19.861Z,4.08
2024-03-24T23:01:52.369Z,4.07
2024-03-24T23:04:39.306Z,4.07
2024-03-24T23:07:09.336Z,4.07
2024-03-24T23:09:54.926Z,4.06
2024-03-24T23:12:21.636Z,4.04
2024-03-24T23:14:48.532Z,4.06
2024-03-24T23:17:15.671Z,4.07
2024-03-24T23:19:45.646Z,4.09
2024-03-24T23:22:15.564Z,4.11
2024-03-24T23:24:44.418Z,4.13
2024-03-24T23:27:12.575Z,4.13
2024-03-24T23:29:39.373Z,4.13
2024-03-24T23:32:09.954Z,4.11
2024-03-24T23:34:36.732Z,4.11
2024-03-24T23:37:03.698Z,4.11
2024-03-24T23:39:30.921Z,4.11
2024-03-24T23:41:57.836Z,4.10
2024-03-24T23:44:24.737Z,4.10
2024-03-24T23:46:51.620Z,4.10
2024-03-24T23:49:18.641Z,4.10
2024-03-24T23:51:45.833Z,4.10
2024-03-24T23:54:13.093Z,4.11
2024-03-24T23:56:39.839Z,4.12
2024-03-24T23:59:06.606Z,4.12
